Time;durP1;ratioP1;P1;durP2;ratioP2;P2;SDS_P1;SDS_P2;PMS_P1;PMS_P2;Temp;Humidity;BMP_temperature;BMP_pressure;BME280_temperature;BME280_humidity;BME280_pressure;Samples;Min_cycle;Max_cycle;Signal;HPM_P1;HPM_P2
2021/12/03 00:00:57;;;;;;;34.77;22.07;;;-0.70;99.90;;;;;;4943443;29;20282;-59
2021/12/03 00:03:25;;;;;;;36.23;21.70;;;-0.60;99.90;;;;;;4942744;29;20212;-58
2021/12/03 00:05:55;;;;;;;36.47;22.63;;;-0.60;99.90;;;;;;4942104;29;20195;-58
2021/12/03 00:08:23;;;;;;;33.57;23.00;;;-0.60;99.90;;;;;;4925994;29;20211;-58
2021/12/03 00:10:57;;;;;;;38.13;23.77;;;-0.60;99.90;;;;;;4942651;29;20604;-58
2021/12/03 00:13:25;;;;;;;39.00;24.83;;;-0.40;99.90;;;;;;4943014;29;20199;-58
2021/12/03 00:15:54;;;;;;;45.60;27.17;;;-0.30;99.90;;;;;;4939099;29;20302;-57
2021/12/03 00:18:22;;;;;;;49.47;28.70;;;-0.10;99.90;;;;;;4929460;29;20273;-57
2021/12/03 00:20:50;;;;;;;58.07;29.77;;;-0.10;99.90;;;;;;4941396;29;20191;-58
2021/12/03 00:23:18;;;;;;;52.97;30.23;;;0.10;99.90;;;;;;4941573;29;20198;-58
2021/12/03 00:25:46;;;;;;;71.83;35.90;;;0.20;99.90;;;;;;4941938;29;20204;-58
2021/12/03 00:28:13;;;;;;;71.17;35.33;;;0.20;99.90;;;;;;4922826;29;20675;-57
2021/12/03 00:30:40;;;;;;;65.77;35.07;;;0.20;69.10;;;;;;4940231;29;20196;-58
2021/12/03 00:33:08;;;;;;;59.13;33.93;;;0.30;1.00;;;;;;4940073;29;20199;-58
2021/12/03 00:35:36;;;;;;;100.97;50.90;;;0.30;1.00;;;;;;4922156;29;20227;-57
2021/12/03 00:38:03;;;;;;;64.60;34.60;;;0.30;1.00;;;;;;4941769;29;20199;-57
2021/12/03 00:40:38;;;;;;;73.17;36.73;;;0.40;99.90;;;;;;4940815;29;20253;-58
2021/12/03 00:43:06;;;;;;;78.03;37.90;;;0.40;99.90;;;;;;4942659;29;20191;-58
2021/12/03 00:45:34;;;;;;;90.47;42.87;;;0.40;99.90;;;;;;4938672;29;20277;-57
2021/12/03 00:48:03;;;;;;;91.33;42.60;;;0.40;9.80;;;;;;4941146;29;20568;-57
2021/12/03 00:50:31;;;;;;;102.90;41.57;;;0.50;93.60;;;;;;4940465;28;20253;-58
2021/12/03 00:53:00;;;;;;;99.97;46.27;;;0.50;99.90;;;;;;4924630;29;20928;-58
2021/12/03 00:55:29;;;;;;;116.80;42.87;;;0.50;99.90;;;;;;4941187;29;20208;-58
2021/12/03 00:57:56;;;;;;;109.70;42.47;;;0.50;1.00;;;;;;4925484;29;20445;-58
2021/12/03 01:00:28;;;;;;;126.37;46.17;;;0.50;99.90;;;;;;4925138;29;20607;-58
2021/12/03 01:02:57;;;;;;;125.33;44.73;;;0.50;1.00;;;;;;4941050;29;20247;-59
2021/12/03 01:05:25;;;;;;;124.57;47.57;;;0.50;1.00;;;;;;4923715;29;20242;-58
2021/12/03 01:07:52;;;;;;;128.60;48.00;;;0.60;99.90;;;;;;4923764;29;20632;-58
2021/12/03 01:10:20;;;;;;;133.23;46.77;;;0.60;1.00;;;;;;4941254;29;20205;-57
2021/12/03 01:12:47;;;;;;;127.13;47.73;;;0.60;1.00;;;;;;4941056;29;20290;-58
2021/12/03 01:15:19;;;;;;;112.63;41.87;;;0.60;99.90;;;;;;4922811;29;20238;-58
2021/12/03 01:17:46;;;;;;;130.13;49.83;;;0.60;99.90;;;;;;4940272;29;20282;-59
2021/12/03 01:20:13;;;;;;;140.63;48.90;;;0.60;99.90;;;;;;4941057;29;20199;-59
2021/12/03 01:22:43;;;;;;;122.30;45.87;;;0.60;99.90;;;;;;4923633;29;20195;-58
2021/12/03 01:25:12;;;;;;;124.17;44.63;;;0.70;1.00;;;;;;4922289;29;20940;-59
2021/12/03 01:27:39;;;;;;;109.93;42.57;;;0.60;99.90;;;;;;4941055;28;20703;-58
2021/12/03 01:30:10;;;;;;;134.03;49.40;;;0.80;99.90;;;;;;4920380;29;20212;-57
2021/12/03 01:32:37;;;;;;;130.83;46.70;;;0.70;2.40;;;;;;4923880;29;20238;-58
2021/12/03 01:35:05;;;;;;;122.80;44.53;;;0.80;97.80;;;;;;4930274;29;20218;-58
2021/12/03 01:37:33;;;;;;;134.37;48.97;;;0.80;1.00;;;;;;4939658;29;20247;-57
2021/12/03 01:39:59;;;;;;;128.63;46.13;;;0.80;99.90;;;;;;4921827;29;20227;-57
2021/12/03 01:42:27;;;;;;;119.43;44.23;;;0.80;1.00;;;;;;4940607;29;20195;-57
2021/12/03 01:44:54;;;;;;;131.20;47.77;;;0.80;1.00;;;;;;4939669;29;20209;-58
2021/12/03 01:47:21;;;;;;;108.73;41.27;;;0.80;50.60;;;;;;4922555;29;20198;-58
2021/12/03 01:49:48;;;;;;;127.80;47.80;;;0.90;1.00;;;;;;4907396;29;20218;-57
2021/12/03 01:52:16;;;;;;;128.50;51.10;;;0.80;99.90;;;;;;4939353;28;20630;-57
2021/12/03 01:54:43;;;;;;;137.80;58.40;;;0.80;99.90;;;;;;4939511;29;20761;-58
2021/12/03 01:57:10;;;;;;;123.43;50.10;;;0.90;99.90;;;;;;4940269;29;20199;-57
2021/12/03 01:59:37;;;;;;;126.63;49.37;;;0.90;1.00;;;;;;4939336;29;20262;-57
2021/12/03 02:02:04;;;;;;;118.70;46.83;;;0.90;1.00;;;;;;4921457;29;20211;-58
2021/12/03 02:04:31;;;;;;;122.73;50.67;;;0.90;99.90;;;;;;4922822;29;20237;-58
2021/12/03 02:06:58;;;;;;;109.27;47.50;;;0.90;99.90;;;;;;4939637;29;20211;-58
2021/12/03 02:09:25;;;;;;;117.27;44.67;;;0.90;99.40;;;;;;4923390;29;20203;-58
2021/12/03 02:11:52;;;;;;;105.77;43.73;;;1.00;1.00;;;;;;4939669;29;20199;-58
2021/12/03 02:14:21;;;;;;;111.60;47.67;;;1.00;1.00;;;;;;4929950;29;20210;-58
2021/12/03 02:16:48;;;;;;;97.40;42.77;;;1.00;1.00;;;;;;4913294;29;20216;-58
2021/12/03 02:19:15;;;;;;;91.00;41.67;;;1.10;99.90;;;;;;4921616;29;20203;-58
2021/12/03 02:21:42;;;;;;;96.27;43.47;;;1.10;1.00;;;;;;4921086;29;20262;-57
2021/12/03 02:24:14;;;;;;;90.90;41.83;;;1.10;1.00;;;;;;4936031;29;20685;-59
2021/12/03 02:26:42;;;;;;;93.93;43.43;;;1.10;1.00;;;;;;4937376;28;20230;-58
2021/12/03 02:29:09;;;;;;;91.17;45.00;;;1.10;99.90;;;;;;4938487;28;20226;-58
2021/12/03 02:31:36;;;;;;;96.40;42.97;;;1.10;99.90;;;;;;4937907;29;20210;-58
2021/12/03 02:34:03;;;;;;;94.87;41.07;;;1.20;94.30;;;;;;4920356;29;20318;-58
2021/12/03 02:36:30;;;;;;;84.60;40.17;;;1.20;1.00;;;;;;4936991;28;20738;-59
2021/12/03 02:38:57;;;;;;;72.47;36.50;;;1.20;1.00;;;;;;4906656;29;20231;-58
2021/12/03 02:41:24;;;;;;;81.47;39.37;;;1.20;1.00;;;;;;4940218;28;20191;-59
2021/12/03 02:43:52;;;;;;;80.90;36.40;;;1.20;99.90;;;;;;4939102;29;20195;-58
2021/12/03 02:46:19;;;;;;;73.13;36.70;;;1.20;99.90;;;;;;4943154;29;20261;-58
2021/12/03 02:48:46;;;;;;;67.47;34.17;;;1.30;93.50;;;;;;4923903;29;20210;-58
2021/12/03 02:51:13;;;;;;;75.33;35.30;;;1.20;1.00;;;;;;4920232;29;20278;-58
2021/12/03 02:53:41;;;;;;;74.83;38.40;;;1.30;1.00;;;;;;4926283;29;20683;-58
2021/12/03 02:56:08;;;;;;;67.90;33.03;;;1.30;1.00;;;;;;4922877;29;20743;-58
2021/12/03 02:58:35;;;;;;;71.80;35.13;;;1.40;1.00;;;;;;4936584;29;20943;-58
2021/12/03 03:01:06;;;;;;;68.43;35.87;;;1.40;1.00;;;;;;4908163;29;20199;-58
2021/12/03 03:03:33;;;;;;;59.20;32.17;;;1.40;99.90;;;;;;4926364;29;20285;-58
2021/12/03 03:06:02;;;;;;;62.83;31.27;;;1.40;99.90;;;;;;4939562;28;20207;-58
2021/12/03 03:08:30;;;;;;;59.23;31.37;;;1.40;99.90;;;;;;4936244;29;20207;-58
2021/12/03 03:11:00;;;;;;;57.90;30.90;;;1.40;99.90;;;;;;4941579;29;20727;-58
2021/12/03 03:13:27;;;;;;;54.40;32.17;;;1.40;99.90;;;;;;4942448;28;20199;-58
2021/12/03 03:15:54;;;;;;;63.00;32.80;;;1.40;99.90;;;;;;4936683;28;20223;-58
2021/12/03 03:18:24;;;;;;;55.83;32.20;;;1.40;96.60;;;;;;4942931;29;20191;-58
2021/12/03 03:20:53;;;;;;;49.43;28.93;;;1.40;1.00;;;;;;4926979;29;20329;-58
2021/12/03 03:23:21;;;;;;;50.07;30.40;;;1.40;1.00;;;;;;4939710;29;20226;-58
2021/12/03 03:25:49;;;;;;;50.23;29.77;;;1.30;1.00;;;;;;4941873;29;20195;-59
2021/12/03 03:28:17;;;;;;;53.83;30.47;;;1.20;54.10;;;;;;4926857;29;20195;-59
2021/12/03 03:30:46;;;;;;;51.63;29.67;;;1.00;99.90;;;;;;4941668;29;20213;-59
2021/12/03 03:33:15;;;;;;;47.50;29.00;;;0.90;99.90;;;;;;4941820;29;20254;-58
2021/12/03 03:35:42;;;;;;;51.07;27.83;;;0.90;1.00;;;;;;4942205;29;20607;-58
2021/12/03 03:38:09;;;;;;;50.80;29.30;;;0.80;1.00;;;;;;4941521;29;20294;-58
2021/12/03 03:40:40;;;;;;;45.37;28.40;;;0.80;1.00;;;;;;4941975;29;20203;-58
2021/12/03 03:43:07;;;;;;;45.30;27.57;;;0.80;97.70;;;;;;4925801;29;20359;-58
2021/12/03 03:45:36;;;;;;;45.63;28.60;;;0.80;99.90;;;;;;4940675;29;20274;-58
2021/12/03 03:48:03;;;;;;;45.93;27.77;;;0.90;1.00;;;;;;4941968;29;20294;-58
2021/12/03 03:50:31;;;;;;;48.30;27.93;;;1.00;1.00;;;;;;4941879;29;20243;-58
2021/12/03 03:52:58;;;;;;;47.30;27.30;;;1.10;1.00;;;;;;4942178;29;20208;-58
2021/12/03 03:55:29;;;;;;;49.83;29.53;;;1.10;99.90;;;;;;4939929;29;20763;-58
2021/12/03 03:57:58;;;;;;;49.77;31.57;;;1.20;99.90;;;;;;4924480;29;20195;-58
2021/12/03 04:00:30;;;;;;;47.13;27.90;;;1.20;91.60;;;;;;4925340;29;20750;-58
2021/12/03 04:02:57;;;;;;;44.83;28.30;;;1.20;1.00;;;;;;4924737;29;20234;-58
2021/12/03 04:05:25;;;;;;;46.73;28.77;;;1.20;1.00;;;;;;4941024;29;20245;-58
2021/12/03 04:07:52;;;;;;;45.13;26.90;;;1.20;1.00;;;;;;4942405;28;20209;-58
2021/12/03 04:10:19;;;;;;;42.77;26.60;;;1.20;14.80;;;;;;4925660;29;20215;-58
2021/12/03 04:12:46;;;;;;;53.13;27.70;;;1.30;33.10;;;;;;4941948;29;20203;-58
2021/12/03 04:15:15;;;;;;;48.20;28.03;;;1.30;1.00;;;;;;4940106;29;20250;-58
2021/12/03 04:17:42;;;;;;;48.13;27.27;;;1.30;1.00;;;;;;4925632;29;20267;-58
2021/12/03 04:20:12;;;;;;;50.93;29.13;;;1.30;1.00;;;;;;4941821;29;20195;-57
2021/12/03 04:22:40;;;;;;;52.87;27.93;;;1.30;1.00;;;;;;4941590;29;20682;-58
2021/12/03 04:25:10;;;;;;;51.90;27.13;;;1.30;1.00;;;;;;4908857;29;21012;-58
2021/12/03 04:27:37;;;;;;;51.40;28.70;;;1.30;1.00;;;;;;4939394;28;20255;-58
2021/12/03 04:30:08;;;;;;;44.13;26.27;;;1.30;1.00;;;;;;4940645;29;20231;-58
2021/12/03 04:32:35;;;;;;;50.47;27.27;;;1.30;1.00;;;;;;4920383;29;20211;-58
2021/12/03 04:35:03;;;;;;;46.90;28.03;;;1.40;1.00;;;;;;4940436;29;20279;-58
2021/12/03 04:37:30;;;;;;;53.07;27.63;;;1.40;1.00;;;;;;4909411;29;20278;-58
2021/12/03 04:39:57;;;;;;;46.80;27.73;;;1.40;1.00;;;;;;4922955;29;20740;-58
2021/12/03 04:42:24;;;;;;;47.63;27.40;;;1.50;1.00;;;;;;4941983;29;20203;-58
2021/12/03 04:44:51;;;;;;;52.30;28.33;;;1.50;1.00;;;;;;4924504;29;20275;-57
2021/12/03 04:47:18;;;;;;;51.60;29.50;;;1.60;1.00;;;;;;4940044;29;20238;-58
2021/12/03 04:49:45;;;;;;;50.47;27.90;;;1.60;1.00;;;;;;4939369;28;20704;-58
2021/12/03 04:52:12;;;;;;;48.00;28.30;;;1.60;99.90;;;;;;4941277;29;20223;-58
2021/12/03 04:54:39;;;;;;;47.07;27.97;;;1.70;99.90;;;;;;4940952;29;20254;-58
2021/12/03 04:57:06;;;;;;;44.70;28.10;;;1.70;99.90;;;;;;4922940;28;20306;-57
2021/12/03 04:59:33;;;;;;;48.73;28.17;;;1.70;99.90;;;;;;4942044;29;20227;-57
2021/12/03 05:02:00;;;;;;;54.97;29.27;;;1.80;99.90;;;;;;4941606;29;20231;-57
2021/12/03 05:04:35;;;;;;;45.27;28.63;;;1.80;99.90;;;;;;4939188;29;20271;-57
2021/12/03 05:09:37;;;;;;;34.33;22.33;;;1.90;99.90;;;;;;4923962;29;20209;-58
2021/12/03 05:12:05;;;;;;;46.93;26.33;;;1.90;99.90;;;;;;4941276;29;20199;-58
2021/12/03 05:14:32;;;;;;;44.20;25.93;;;1.90;55.90;;;;;;4923870;29;20242;-57
2021/12/03 05:16:59;;;;;;;46.93;25.53;;;1.90;76.00;;;;;;4941025;29;20223;-58
2021/12/03 05:19:26;;;;;;;46.03;26.07;;;1.90;53.30;;;;;;4923368;29;20234;-58
2021/12/03 05:21:53;;;;;;;45.60;25.40;;;1.90;1.00;;;;;;4941379;29;20213;-57
2021/12/03 05:24:20;;;;;;;46.33;26.50;;;1.90;14.50;;;;;;4940916;29;20278;-57
2021/12/03 05:26:47;;;;;;;44.13;26.60;;;1.90;17.90;;;;;;4940967;28;20202;-57
2021/12/03 05:29:15;;;;;;;46.27;26.57;;;1.90;11.40;;;;;;4938749;29;20266;-57
2021/12/03 05:31:42;;;;;;;39.07;24.63;;;1.90;9.30;;;;;;4939395;29;20194;-58
2021/12/03 05:34:27;;;;;;;45.70;25.30;;;2.00;20.70;;;;;;4924710;29;20191;-57
2021/12/03 05:36:54;;;;;;;39.63;24.83;;;2.00;1.00;;;;;;4935036;29;20215;-58
2021/12/03 05:39:21;;;;;;;46.30;23.93;;;2.00;1.00;;;;;;4933516;28;20250;-58
2021/12/03 05:41:49;;;;;;;42.57;24.77;;;2.00;1.00;;;;;;4922796;29;20230;-58
2021/12/03 05:44:16;;;;;;;43.33;24.33;;;2.00;1.00;;;;;;4928409;29;20211;-57
2021/12/03 05:46:43;;;;;;;44.40;26.37;;;2.00;1.00;;;;;;4941482;29;20590;-58
2021/12/03 05:49:11;;;;;;;42.57;25.70;;;2.00;1.40;;;;;;4923529;29;20723;-57
2021/12/03 05:51:38;;;;;;;40.90;24.27;;;2.10;1.00;;;;;;4940860;29;20207;-58
2021/12/03 05:54:05;;;;;;;40.70;24.33;;;2.10;1.00;;;;;;4925179;29;20211;-58
2021/12/03 05:56:35;;;;;;;42.17;23.87;;;2.10;1.00;;;;;;4927747;29;20218;-58
2021/12/03 05:59:03;;;;;;;45.10;23.60;;;2.10;1.00;;;;;;4941059;29;20225;-58
2021/12/03 06:01:30;;;;;;;40.27;23.37;;;2.10;1.00;;;;;;4911056;29;20203;-58
2021/12/03 06:03:57;;;;;;;40.87;22.60;;;2.10;1.00;;;;;;4940060;29;20235;-58
2021/12/03 06:06:24;;;;;;;36.20;21.83;;;2.10;1.00;;;;;;4941060;29;20264;-59
2021/12/03 06:08:51;;;;;;;38.73;22.00;;;2.20;1.00;;;;;;4923030;29;20207;-58
2021/12/03 06:11:18;;;;;;;41.10;23.30;;;2.20;1.00;;;;;;4940533;29;20200;-58
2021/12/03 06:13:45;;;;;;;37.60;21.03;;;2.20;1.00;;;;;;4939904;29;20199;-58
2021/12/03 06:16:13;;;;;;;33.00;20.33;;;2.20;1.00;;;;;;4941015;28;20638;-58
2021/12/03 06:18:41;;;;;;;37.00;21.30;;;2.20;1.00;;;;;;4941127;29;20227;-58
2021/12/03 06:21:10;;;;;;;30.40;19.17;;;2.20;1.00;;;;;;4941337;29;20604;-58
2021/12/03 06:23:38;;;;;;;32.13;19.33;;;2.20;1.00;;;;;;4918805;29;20194;-58
2021/12/03 06:26:07;;;;;;;30.43;18.23;;;2.20;1.00;;;;;;4942407;29;20191;-58
2021/12/03 06:28:36;;;;;;;40.37;20.03;;;2.20;1.00;;;;;;4944881;28;20311;-58
2021/12/03 06:31:04;;;;;;;34.77;19.20;;;2.20;1.00;;;;;;4927417;29;20201;-58
2021/12/03 06:33:31;;;;;;;29.67;18.10;;;2.20;1.00;;;;;;4926988;29;20875;-58
2021/12/03 06:35:59;;;;;;;30.97;16.90;;;2.20;1.00;;;;;;4942820;29;20211;-58
2021/12/03 06:38:26;;;;;;;31.03;17.83;;;2.30;99.90;;;;;;4927739;29;20205;-58
2021/12/03 06:40:54;;;;;;;29.77;19.23;;;2.30;99.90;;;;;;4941206;28;20275;-58
2021/12/03 06:43:21;;;;;;;31.80;17.83;;;2.30;99.90;;;;;;4938786;29;20293;-57
2021/12/03 06:45:49;;;;;;;30.80;18.03;;;2.20;1.00;;;;;;4939485;29;20290;-57
2021/12/03 06:48:16;;;;;;;32.20;18.53;;;2.30;99.90;;;;;;4912934;29;20773;-57
2021/12/03 06:50:45;;;;;;;32.60;17.43;;;2.40;99.90;;;;;;4943496;29;20278;-57
2021/12/03 06:53:15;;;;;;;32.53;19.07;;;2.40;99.90;;;;;;4943116;29;20202;-58
2021/12/03 06:58:14;;;;;;;35.67;20.97;;;2.40;99.90;;;;;;4924625;29;20203;-58
2021/12/03 07:00:43;;;;;;;35.00;21.03;;;2.40;99.90;;;;;;4927253;29;20198;-59
2021/12/03 07:03:10;;;;;;;32.30;19.33;;;2.40;99.90;;;;;;4924316;29;20639;-58
2021/12/03 07:05:38;;;;;;;34.87;21.27;;;2.50;99.90;;;;;;4942832;29;20222;-59
2021/12/03 07:08:05;;;;;;;30.27;19.83;;;2.50;99.90;;;;;;4924469;29;20207;-58
2021/12/03 07:10:32;;;;;;;37.37;20.47;;;2.50;99.90;;;;;;4939970;29;20191;-57
2021/12/03 07:13:00;;;;;;;36.37;20.83;;;2.50;99.90;;;;;;4941563;29;20211;-57
2021/12/03 07:15:27;;;;;;;36.87;21.73;;;2.50;99.90;;;;;;4926013;29;20231;-58
2021/12/03 07:17:54;;;;;;;37.60;22.10;;;2.50;99.90;;;;;;4926579;29;20216;-58
2021/12/03 07:20:23;;;;;;;32.13;19.57;;;2.60;99.90;;;;;;4916627;29;20220;-57
2021/12/03 07:22:51;;;;;;;36.40;20.43;;;2.60;99.90;;;;;;4941948;29;20199;-57
2021/12/03 07:25:18;;;;;;;38.33;21.13;;;2.60;99.90;;;;;;4942761;29;20194;-58
2021/12/03 07:27:46;;;;;;;36.53;21.07;;;2.60;99.90;;;;;;4924063;29;20219;-58
2021/12/03 07:30:15;;;;;;;32.13;20.13;;;2.60;99.90;;;;;;4927654;29;20241;-58
2021/12/03 07:32:42;;;;;;;40.03;21.10;;;2.70;99.90;;;;;;4942955;29;20208;-60
2021/12/03 07:35:10;;;;;;;33.07;20.07;;;2.70;99.90;;;;;;4930764;29;20867;-58
2021/12/03 07:37:38;;;;;;;37.43;20.67;;;2.70;99.90;;;;;;4916901;29;20224;-58
2021/12/03 07:40:07;;;;;;;40.80;21.73;;;2.80;99.90;;;;;;4941338;29;20909;-58
2021/12/03 07:42:35;;;;;;;35.77;20.20;;;2.80;99.90;;;;;;4934229;28;20196;-58
2021/12/03 07:45:06;;;;;;;37.33;21.93;;;2.80;99.90;;;;;;4927377;28;20306;-58
2021/12/03 07:47:33;;;;;;;31.80;20.40;;;2.80;99.90;;;;;;4921846;28;20203;-58
2021/12/03 07:50:00;;;;;;;38.37;21.03;;;2.80;99.90;;;;;;4936039;29;20675;-58
2021/12/03 07:52:27;;;;;;;33.53;19.07;;;2.80;99.90;;;;;;4926606;29;20258;-59
2021/12/03 07:54:54;;;;;;;39.00;21.53;;;2.80;99.90;;;;;;4941692;29;20200;-57
2021/12/03 07:57:21;;;;;;;26.80;17.30;;;2.80;99.90;;;;;;4923809;29;20293;-58
2021/12/03 07:59:48;;;;;;;35.03;19.43;;;2.90;99.90;;;;;;4909478;29;20306;-58
2021/12/03 08:02:15;;;;;;;29.77;18.57;;;2.90;99.90;;;;;;4940239;28;20235;-58
2021/12/03 08:04:42;;;;;;;31.87;18.83;;;2.90;99.90;;;;;;4924662;29;20242;-58
2021/12/03 08:07:09;;;;;;;31.30;18.27;;;2.90;99.90;;;;;;4942471;29;20234;-58
2021/12/03 08:09:37;;;;;;;34.47;17.80;;;2.90;99.90;;;;;;4941193;28;20286;-57
2021/12/03 08:12:06;;;;;;;26.70;17.43;;;2.90;99.90;;;;;;4922673;29;20199;-59
2021/12/03 08:14:33;;;;;;;26.90;16.97;;;2.90;99.90;;;;;;4941330;29;20250;-58
2021/12/03 08:17:00;;;;;;;26.90;17.13;;;2.90;99.90;;;;;;4921834;29;20223;-58
2021/12/03 08:19:27;;;;;;;25.70;15.90;;;3.00;99.90;;;;;;4926724;29;20231;-58
2021/12/03 08:21:54;;;;;;;28.67;17.00;;;3.00;99.90;;;;;;4942279;28;20234;-58
2021/12/03 08:24:21;;;;;;;24.63;16.63;;;3.00;99.90;;;;;;4940390;29;20234;-58
2021/12/03 08:26:48;;;;;;;33.23;17.00;;;3.10;21.10;;;;;;4924068;28;21355;-58
2021/12/03 08:29:15;;;;;;;30.93;16.60;;;3.10;71.30;;;;;;4940856;29;20258;-57
2021/12/03 08:31:42;;;;;;;27.63;16.23;;;3.10;97.90;;;;;;4939181;29;20203;-58
2021/12/03 08:34:09;;;;;;;28.17;16.40;;;3.00;97.50;;;;;;4941456;29;20238;-58
2021/12/03 08:36:36;;;;;;;30.77;16.83;;;3.10;91.90;;;;;;4923752;29;20411;-58
2021/12/03 08:39:04;;;;;;;26.40;16.13;;;3.20;27.40;;;;;;4940046;28;20207;-58
2021/12/03 08:41:33;;;;;;;26.70;16.47;;;3.20;16.60;;;;;;4938794;29;20270;-58
2021/12/03 08:44:02;;;;;;;28.17;16.83;;;3.30;1.00;;;;;;4941129;29;20200;-58
2021/12/03 08:46:35;;;;;;;29.50;17.13;;;3.30;1.00;;;;;;4927586;29;20223;-58
2021/12/03 08:49:12;;;;;;;26.30;16.97;;;3.30;1.00;;;;;;4938463;29;20202;-58
2021/12/03 08:56:57;;;;;;;34.57;17.60;;;3.50;1.00;;;;;;4937671;28;20204;-58
2021/12/03 08:59:24;;;;;;;30.00;15.57;;;3.50;1.00;;;;;;4922439;29;20682;-58
2021/12/03 09:01:51;;;;;;;35.63;16.97;;;3.50;1.00;;;;;;4939432;29;20208;-58
2021/12/03 09:04:18;;;;;;;33.10;16.87;;;3.50;1.00;;;;;;4938233;29;20227;-58
2021/12/03 09:06:45;;;;;;;29.23;17.90;;;3.50;1.00;;;;;;4937441;29;20203;-58
2021/12/03 09:09:12;;;;;;;26.33;16.40;;;3.50;1.00;;;;;;4939886;29;20199;-58
2021/12/03 09:11:39;;;;;;;33.77;17.93;;;3.60;1.00;;;;;;4922536;29;20207;-58
2021/12/03 09:14:17;;;;;;;34.00;18.17;;;3.60;1.00;;;;;;4937592;29;20210;-58
2021/12/03 09:16:47;;;;;;;36.43;18.67;;;3.60;1.00;;;;;;4939286;29;20243;-58
2021/12/03 09:19:23;;;;;;;32.13;20.07;;;3.70;1.00;;;;;;4929161;29;20237;-57
2021/12/03 09:21:50;;;;;;;28.17;18.47;;;3.70;1.00;;;;;;4922793;29;20212;-58
2021/12/03 09:24:19;;;;;;;33.77;19.97;;;3.70;1.00;;;;;;4940386;29;20544;-58
2021/12/03 09:26:46;;;;;;;36.17;19.53;;;3.70;1.00;;;;;;4940093;28;20253;-58
2021/12/03 09:29:17;;;;;;;37.23;19.93;;;3.70;1.00;;;;;;4940982;28;20286;-58
2021/12/03 09:31:47;;;;;;;31.37;19.97;;;3.80;1.00;;;;;;4940519;29;20269;-59
2021/12/03 09:34:15;;;;;;;37.60;20.63;;;3.90;1.00;;;;;;4940311;29;20199;-58
2021/12/03 09:36:43;;;;;;;37.33;19.07;;;4.10;1.00;;;;;;4924533;29;20227;-58
2021/12/03 09:39:17;;;;;;;29.63;17.30;;;4.30;1.00;;;;;;4940292;29;20734;-58
2021/12/03 09:41:44;;;;;;;29.87;17.67;;;4.30;99.90;;;;;;4937563;29;20825;-58
2021/12/03 09:44:11;;;;;;;31.43;17.80;;;4.40;99.90;;;;;;4937773;29;20655;-58
2021/12/03 09:46:38;;;;;;;29.60;16.50;;;4.40;99.90;;;;;;4934225;29;20226;-58
2021/12/03 09:51:39;;;;;;;26.93;16.37;;;4.40;99.90;;;;;;4928400;29;20293;-59
2021/12/03 09:54:21;;;;;;;26.73;14.57;;;4.50;99.90;;;;;;4939072;29;20284;-58
2021/12/03 09:56:51;;;;;;;22.77;11.97;;;4.70;31.30;;;;;;4921976;29;20222;-58
2021/12/03 10:18:59;;;;;;;17.57;7.70;;;4.70;1.00;;;;;;4940002;29;20721;-58
2021/12/03 10:30:19;;;;;;;15.00;7.37;;;4.50;1.00;;;;;;4940933;28;20294;-58
2021/12/03 10:46:19;;;;;;;19.73;6.83;;;4.30;1.00;;;;;;4939291;29;21166;-58
2021/12/03 10:57:03;;;;;;;14.90;5.00;;;4.40;1.00;;;;;;4935993;28;20214;-57
2021/12/03 13:08:55;;;;;;;9.53;2.80;;;4.80;99.90;;;;;;4928405;28;20203;-58
2021/12/03 13:23:01;;;;;;;14.63;4.60;;;4.70;99.90;;;;;;4868912;29;20232;-58
2021/12/03 14:49:27;;;;;;;6.37;3.93;;;4.70;99.90;;;;;;4952223;28;20253;-58
2021/12/03 14:51:48;;;;;;;6.73;3.43;;;4.70;99.90;;;;;;4947828;28;20290;-58
2021/12/03 14:57:13;;;;;;;5.67;3.37;;;4.70;99.90;;;;;;4949796;28;20230;-58
2021/12/03 15:06:00;;;;;;;4.63;3.00;;;4.60;99.90;;;;;;4952922;28;20313;-58
2021/12/03 15:32:49;;;;;;;9.67;2.77;;;4.60;99.90;;;;;;4953320;28;20203;-58
2021/12/03 15:57:19;;;;;;;15.93;7.63;;;4.50;99.90;;;;;;4944294;28;20199;-57
2021/12/03 16:51:27;;;;;;;3.97;3.07;;;4.20;1.00;;;;;;4947617;28;20254;-58
2021/12/03 16:54:02;;;;;;;6.17;3.40;;;4.20;1.00;;;;;;4951388;28;20194;-59
2021/12/03 16:56:29;;;;;;;8.47;4.10;;;4.20;1.00;;;;;;4928860;28;20255;-59
2021/12/03 16:59:00;;;;;;;6.03;3.33;;;4.20;1.00;;;;;;4949145;28;20817;-59
2021/12/03 17:01:40;;;;;;;6.77;3.47;;;4.20;1.00;;;;;;4930648;28;20238;-59
2021/12/03 17:54:44;;;;;;;2.90;2.63;;;4.00;1.00;;;;;;4946835;28;20199;-59
2021/12/03 17:59:51;;;;;;;5.93;3.17;;;4.10;1.00;;;;;;4947275;28;20221;-59
2021/12/03 18:02:31;;;;;;;3.13;2.83;;;4.00;1.00;;;;;;4950396;28;20617;-58
2021/12/03 18:56:29;;;;;;;7.57;5.83;;;4.10;1.00;;;;;;4950941;28;20729;-58
2021/12/03 18:58:59;;;;;;;8.73;4.73;;;4.00;1.00;;;;;;4946086;28;20219;-58
2021/12/03 19:01:28;;;;;;;10.00;6.20;;;4.00;1.00;;;;;;4947901;28;20203;-58
2021/12/03 19:06:28;;;;;;;8.83;6.30;;;4.00;1.00;;;;;;4951456;28;20199;-59
2021/12/03 19:08:59;;;;;;;6.23;4.83;;;4.00;1.00;;;;;;4954201;28;20675;-59
2021/12/03 19:11:34;;;;;;;10.03;6.60;;;4.00;1.00;;;;;;4937102;28;20223;-59
2021/12/03 19:14:02;;;;;;;7.20;4.63;;;4.00;1.00;;;;;;4934584;28;20296;-59
2021/12/03 19:16:30;;;;;;;4.57;4.10;;;4.10;1.00;;;;;;4930382;28;20212;-59
2021/12/03 19:18:59;;;;;;;8.73;6.43;;;4.10;1.00;;;;;;4933573;28;20260;-59
2021/12/03 19:21:28;;;;;;;10.07;6.63;;;4.10;1.00;;;;;;4934651;28;20207;-59
2021/12/03 19:23:58;;;;;;;17.13;10.20;;;4.10;1.00;;;;;;4940356;28;20234;-58
2021/12/03 19:26:27;;;;;;;10.83;6.43;;;4.10;1.00;;;;;;4943794;28;20195;-58
2021/12/03 19:28:55;;;;;;;5.17;3.87;;;4.10;1.00;;;;;;4935621;28;20230;-59
2021/12/03 19:31:24;;;;;;;15.07;8.60;;;4.20;1.00;;;;;;4934371;28;20211;-58
2021/12/03 19:33:51;;;;;;;7.13;5.07;;;4.10;1.00;;;;;;4942953;28;20203;-58
2021/12/03 19:36:23;;;;;;;10.67;5.27;;;4.20;1.00;;;;;;4941443;28;20647;-58
2021/12/03 19:38:57;;;;;;;11.43;7.33;;;4.20;1.00;;;;;;4938773;28;20285;-58
2021/12/03 19:42:02;;;;;;;11.40;6.67;;;4.20;1.00;;;;;;4925695;28;20227;-58
2021/12/03 19:44:33;;;;;;;8.47;5.70;;;4.20;1.00;;;;;;4938719;28;20422;-58
2021/12/03 19:47:01;;;;;;;6.13;5.00;;;4.20;1.00;;;;;;4946176;28;20195;-58
2021/12/03 19:51:59;;;;;;;6.23;4.47;;;4.20;1.00;;;;;;4948917;28;20199;-57
2021/12/03 19:54:27;;;;;;;5.67;3.97;;;4.10;1.00;;;;;;4934682;28;20222;-59
2021/12/03 19:56:55;;;;;;;4.43;3.93;;;4.20;1.00;;;;;;4933481;28;21645;-58
2021/12/03 19:59:22;;;;;;;4.63;3.00;;;4.20;1.00;;;;;;4945882;28;20707;-58
2021/12/03 20:01:50;;;;;;;4.70;3.53;;;4.20;1.00;;;;;;4933074;28;20234;-58
2021/12/03 20:04:17;;;;;;;4.13;3.73;;;4.20;1.00;;;;;;4944677;28;20574;-58
2021/12/03 20:06:45;;;;;;;5.87;4.73;;;4.20;1.00;;;;;;4950417;28;20226;-58
2021/12/03 20:09:22;;;;;;;4.53;3.83;;;4.20;1.00;;;;;;4946016;28;20230;-58
2021/12/03 20:11:56;;;;;;;4.43;3.40;;;4.20;1.00;;;;;;4936532;28;20186;-58
2021/12/03 20:14:23;;;;;;;5.03;3.20;;;4.20;1.00;;;;;;4946734;28;20994;-58
2021/12/03 20:17:19;;;;;;;9.67;4.83;;;4.30;1.00;;;;;;4929921;28;20195;-58
2021/12/03 20:19:39;;;;;;;4.57;3.90;;;4.30;1.00;;;;;;4931235;28;20234;-58
2021/12/03 20:22:18;;;;;;;6.30;4.23;;;4.30;1.00;;;;;;4933659;28;20258;-58
2021/12/03 20:27:29;;;;;;;4.13;3.73;;;4.30;1.00;;;;;;4946987;28;20222;-59
2021/12/03 20:29:58;;;;;;;4.97;4.30;;;4.30;1.00;;;;;;4928147;28;20246;-58
2021/12/03 20:37:33;;;;;;;3.67;3.00;;;4.30;1.00;;;;;;4952149;28;20207;-59
2021/12/03 20:40:06;;;;;;;4.27;3.57;;;4.30;1.00;;;;;;4932469;28;20210;-58
2021/12/03 20:42:46;;;;;;;7.03;3.70;;;4.30;1.00;;;;;;4950927;28;20268;-58
2021/12/03 20:48:03;;;;;;;6.30;2.83;;;4.30;1.00;;;;;;4946768;28;20214;-58
2021/12/03 20:50:54;;;;;;;5.33;4.23;;;4.30;1.00;;;;;;4949435;28;20598;-59
2021/12/03 20:53:29;;;;;;;4.10;2.40;;;4.30;1.00;;;;;;4946143;28;20207;-58
2021/12/03 21:09:30;;;;;;;6.53;4.33;;;4.40;1.00;;;;;;4941139;28;20187;-58
2021/12/03 21:12:00;;;;;;;3.67;3.13;;;4.30;1.00;;;;;;4924374;28;20289;-58
2021/12/03 21:14:30;;;;;;;5.47;3.90;;;4.30;1.00;;;;;;4925752;28;20226;-58
2021/12/03 21:17:06;;;;;;;5.17;4.10;;;4.30;1.00;;;;;;4939595;28;20219;-59
2021/12/03 21:20:21;;;;;;;3.67;2.60;;;4.30;1.00;;;;;;4940085;28;20202;-59
2021/12/03 21:22:29;;;;;;;7.70;4.70;;;4.40;1.00;;;;;;4915479;28;20215;-58
2021/12/03 21:25:01;;;;;;;4.43;2.83;;;4.30;1.00;;;;;;4906792;28;20206;-59
2021/12/03 21:27:36;;;;;;;3.63;3.27;;;4.40;1.00;;;;;;4940047;28;20845;-58
2021/12/03 21:43:41;;;;;;;6.10;3.37;;;4.40;1.00;;;;;;4922026;28;20214;-58
2021/12/03 21:46:08;;;;;;;4.20;2.70;;;4.40;1.00;;;;;;4936792;28;20209;-59
2021/12/03 21:48:35;;;;;;;4.07;2.97;;;4.40;1.00;;;;;;4938454;28;21127;-60
2021/12/03 21:51:05;;;;;;;6.83;3.90;;;4.40;1.00;;;;;;4906385;28;20210;-59
2021/12/03 21:53:32;;;;;;;3.77;3.20;;;4.40;1.00;;;;;;4938607;28;20261;-59
2021/12/03 21:55:59;;;;;;;6.33;3.77;;;4.40;1.00;;;;;;4939362;28;20218;-58